createdAt,value
2022-10-02T00:00:52.432Z,1022.80
2022-10-02T00:03:24.677Z,1022.66
2022-10-02T00:05:57.924Z,1022.66
2022-10-02T00:08:32.394Z,1022.56
2022-10-02T00:11:07.561Z,1022.66
2022-10-02T00:13:43.542Z,1022.75
2022-10-02T00:16:15.887Z,1022.87
2022-10-02T00:18:44.218Z,1022.81
2022-10-02T00:21:26.104Z,1022.77
2022-10-02T00:23:57.416Z,1022.75
2022-10-02T00:26:27.917Z,1022.97
2022-10-02T00:29:10.110Z,1023.15
2022-10-02T00:31:48.003Z,1023.15
2022-10-02T00:34:25.330Z,1023.03
2022-10-02T00:37:03.385Z,1022.95
2022-10-02T00:39:43.690Z,1023.13
2022-10-02T00:42:47.008Z,1023.14
2022-10-02T00:45:42.333Z,1022.98
2022-10-02T00:48:26.283Z,1022.87
2022-10-02T00:51:04.243Z,1023.06
2022-10-02T00:53:42.116Z,1022.94
2022-10-02T00:56:22.899Z,1022.93
2022-10-02T00:59:01.623Z,1022.92
2022-10-02T01:01:39.627Z,1023.02
2022-10-02T01:04:11.006Z,1023.04
2022-10-02T01:06:38.397Z,1022.89
2022-10-02T01:09:05.431Z,1022.69
2022-10-02T01:11:33.895Z,1022.61
2022-10-02T01:14:01.071Z,1022.76
2022-10-02T01:16:28.157Z,1022.87
2022-10-02T01:18:58.842Z,1022.90
2022-10-02T01:21:36.786Z,1022.92
2022-10-02T01:24:10.686Z,1022.94
2022-10-02T01:26:39.282Z,1023.14
2022-10-02T01:29:06.436Z,1023.11
2022-10-02T01:31:35.624Z,1023.22
2022-10-02T01:34:04.822Z,1023.25
2022-10-02T01:36:32.832Z,1023.34
2022-10-02T01:39:01.404Z,1023.39
2022-10-02T01:41:28.825Z,1023.30
2022-10-02T01:44:01.203Z,1023.26
2022-10-02T01:46:32.819Z,1023.28
2022-10-02T01:49:27.696Z,1023.38
2022-10-02T01:52:09.150Z,1023.40
2022-10-02T01:54:51.564Z,1023.14
2022-10-02T01:57:26.731Z,1023.17
2022-10-02T02:00:05.608Z,1023.28
2022-10-02T02:02:42.622Z,1023.35
2022-10-02T02:05:16.271Z,1023.28
2022-10-02T02:07:48.967Z,1023.18
2022-10-02T02:10:24.106Z,1023.38
2022-10-02T02:12:58.570Z,1023.33
2022-10-02T02:15:33.432Z,1023.17
2022-10-02T02:18:11.665Z,1023.26
2022-10-02T02:20:46.873Z,1023.16
2022-10-02T02:23:17.351Z,1023.29
2022-10-02T02:25:49.391Z,1023.31
2022-10-02T02:28:21.315Z,1023.39
2022-10-02T02:30:52.890Z,1023.20
2022-10-02T02:33:25.019Z,1023.30
2022-10-02T02:35:56.625Z,1023.44
2022-10-02T02:38:28.865Z,1023.53
2022-10-02T02:40:59.939Z,1023.58
2022-10-02T02:43:31.806Z,1023.55
2022-10-02T02:46:06.529Z,1023.74
2022-10-02T02:48:38.747Z,1023.72
2022-10-02T02:51:15.639Z,1023.78
2022-10-02T02:53:48.833Z,1023.80
2022-10-02T02:56:20.655Z,1023.70
2022-10-02T02:58:53.555Z,1023.80
2022-10-02T03:01:22.436Z,1023.97
2022-10-02T03:03:50.995Z,1023.80
2022-10-02T03:06:30.285Z,1023.91
2022-10-02T03:08:58.138Z,1023.92
2022-10-02T03:11:39.045Z,1024.02
2022-10-02T03:14:19.937Z,1023.98
2022-10-02T03:16:57.645Z,1023.92
2022-10-02T03:19:41.140Z,1023.86
2022-10-02T03:22:22.485Z,1023.68
2022-10-02T03:24:54.717Z,1023.58
2022-10-02T03:27:34.875Z,1023.70
2022-10-02T03:30:05.569Z,1023.47
2022-10-02T03:32:38.203Z,1023.44
2022-10-02T03:35:09.499Z,1023.69
2022-10-02T03:37:36.511Z,1023.88
2022-10-02T03:40:03.689Z,1023.97
2022-10-02T03:42:33.414Z,1023.97
2022-10-02T03:45:00.494Z,1024.05
2022-10-02T03:47:27.682Z,1023.87
2022-10-02T03:49:57.126Z,1023.97
2022-10-02T03:52:24.804Z,1023.93
2022-10-02T03:54:55.898Z,1023.99
2022-10-02T03:57:26.688Z,1023.94
2022-10-02T04:00:01.642Z,1023.97
2022-10-02T04:02:35.731Z,1024.04
2022-10-02T04:05:11.930Z,1024.18
2022-10-02T04:07:42.052Z,1024.14
2022-10-02T04:10:25.510Z,1024.22
2022-10-02T04:12:57.844Z,1024.24
2022-10-02T04:15:30.748Z,1024.13
2022-10-02T04:18:01.429Z,1024.07
2022-10-02T04:20:36.413Z,1024.16
2022-10-02T04:23:10.183Z,1024.16
2022-10-02T04:25:42.974Z,1024.18
2022-10-02T04:28:14.303Z,1024.08
2022-10-02T04:30:41.119Z,1024.02
2022-10-02T04:33:12.571Z,1024.01
2022-10-02T04:35:52.986Z,1023.96
2022-10-02T04:38:48.239Z,1024.01
2022-10-02T04:41:36.562Z,1024.14
2022-10-02T04:44:19.235Z,1024.19
2022-10-02T04:46:59.291Z,1024.26
2022-10-02T04:49:57.729Z,1024.31
2022-10-02T04:52:47.588Z,1024.41
2022-10-02T04:55:30.202Z,1024.51
2022-10-02T04:58:23.891Z,1024.50
2022-10-02T05:01:05.783Z,1024.34
2022-10-02T05:03:48.922Z,1024.27
2022-10-02T05:06:34.949Z,1024.22
2022-10-02T05:09:12.032Z,1024.38
2022-10-02T05:12:11.370Z,1024.57
2022-10-02T05:15:02.085Z,1024.58
2022-10-02T05:17:45.022Z,1024.66
2022-10-02T05:20:27.925Z,1024.60
2022-10-02T05:23:16.187Z,1024.71
2022-10-02T05:26:14.227Z,1024.87
2022-10-02T05:29:03.514Z,1024.78
2022-10-02T05:31:47.520Z,1024.89
2022-10-02T05:34:31.878Z,1024.67
2022-10-02T05:37:17.022Z,1024.63
2022-10-02T05:39:55.478Z,1024.51
2022-10-02T05:42:31.210Z,1024.51
2022-10-02T05:45:05.288Z,1024.43
2022-10-02T05:47:36.366Z,1024.46
2022-10-02T05:50:14.388Z,1024.49
2022-10-02T05:52:50.547Z,1024.53
2022-10-02T05:55:23.313Z,1024.47
2022-10-02T05:58:00.493Z,1024.42
2022-10-02T06:00:32.857Z,1024.44
2022-10-02T06:03:09.977Z,1024.46
2022-10-02T06:05:44.348Z,1024.58
2022-10-02T06:08:14.104Z,1024.69
2022-10-02T06:10:46.219Z,1024.46
2022-10-02T06:13:22.106Z,1024.49
2022-10-02T06:15:53.142Z,1024.63
2022-10-02T06:18:23.668Z,1024.59
2022-10-02T06:20:53.226Z,1024.50
2022-10-02T06:23:25.840Z,1024.48
2022-10-02T06:25:56.501Z,1024.46
2022-10-02T06:28:30.313Z,1024.35
2022-10-02T06:31:09.895Z,1024.30
2022-10-02T06:33:37.544Z,1024.07
2022-10-02T06:36:36.872Z,1023.78
2022-10-02T06:39:28.414Z,1023.61
2022-10-02T06:42:08.249Z,1023.59
2022-10-02T06:44:45.119Z,1023.55
2022-10-02T06:47:22.111Z,1023.50
2022-10-02T06:50:05.846Z,1023.26
2022-10-02T06:52:41.505Z,1023.00
2022-10-02T06:55:26.683Z,1023.05
2022-10-02T06:58:10.493Z,1022.84
2022-10-02T07:00:46.754Z,1022.88
2022-10-02T07:03:30.125Z,1022.70
2022-10-02T07:06:16.199Z,1022.78
2022-10-02T07:09:00.976Z,1022.69
2022-10-02T07:11:32.265Z,1022.78
2022-10-02T07:14:12.158Z,1022.87
2022-10-02T07:17:05.574Z,1022.89
2022-10-02T07:19:52.447Z,1022.83
2022-10-02T07:22:44.710Z,1022.76
2022-10-02T07:25:43.647Z,1022.67
2022-10-02T07:28:20.881Z,1022.58
2022-10-02T07:30:56.380Z,1022.38
2022-10-02T07:33:36.329Z,1022.20
2022-10-02T07:36:10.533Z,1022.07
2022-10-02T07:38:50.870Z,1021.92
2022-10-02T07:41:53.158Z,1021.93
2022-10-02T07:44:55.485Z,1021.76
2022-10-02T07:47:40.506Z,1021.78
2022-10-02T07:50:13.015Z,1021.72
2022-10-02T07:52:53.871Z,1021.62
2022-10-02T07:55:21.912Z,1021.64
2022-10-02T07:58:02.568Z,1021.78
2022-10-02T08:00:33.478Z,1021.74
2022-10-02T08:03:04.653Z,1021.81
2022-10-02T08:05:34.928Z,1021.91
2022-10-02T08:08:06.934Z,1021.83
2022-10-02T08:10:38.824Z,1021.78
2022-10-02T08:13:14.485Z,1021.85
2022-10-02T08:15:44.296Z,1021.80
2022-10-02T08:18:33.632Z,1021.78
2022-10-02T08:21:09.723Z,1021.64
2022-10-02T08:23:42.471Z,1021.63
2022-10-02T08:26:17.437Z,1021.53
2022-10-02T08:28:49.668Z,1021.48
2022-10-02T08:31:16.471Z,1021.37
2022-10-02T08:33:44.162Z,1021.30
2022-10-02T08:36:37.807Z,1021.26
2022-10-02T08:39:13.996Z,1021.17
2022-10-02T08:42:04.801Z,1021.15
2022-10-02T08:45:11.409Z,1021.21
2022-10-02T08:48:06.761Z,1021.30
2022-10-02T08:51:07.812Z,1021.20
2022-10-02T08:54:23.395Z,1021.22
2022-10-02T08:56:57.513Z,1021.32
2022-10-02T09:00:07.657Z,1021.33
2022-10-02T09:03:19.560Z,1021.32
2022-10-02T09:06:15.273Z,1021.26
2022-10-02T09:09:21.140Z,1021.25
2022-10-02T09:12:27.593Z,1021.17
2022-10-02T09:15:03.634Z,1021.11
2022-10-02T09:17:45.039Z,1021.03
2022-10-02T09:20:55.908Z,1020.99
2022-10-02T09:23:59.745Z,1020.85
2022-10-02T09:26:36.966Z,1020.98
2022-10-02T09:29:39.574Z,1020.80
2022-10-02T09:32:45.757Z,1020.83
2022-10-02T09:36:15.908Z,1020.86
2022-10-02T09:39:18.959Z,1020.81
2022-10-02T09:42:20.615Z,1020.81
2022-10-02T09:45:29.541Z,1020.81
2022-10-02T09:48:33.567Z,1020.80
2022-10-02T09:51:28.404Z,1020.79
2022-10-02T09:54:24.378Z,1020.72
2022-10-02T09:57:27.880Z,1020.65
2022-10-02T10:00:18.287Z,1020.62
2022-10-02T10:03:23.933Z,1020.58
2022-10-02T10:06:29.153Z,1020.53
2022-10-02T10:09:19.356Z,1020.36
2022-10-02T10:12:07.013Z,1020.41
2022-10-02T10:15:01.801Z,1020.25
2022-10-02T10:18:05.544Z,1019.95
2022-10-02T10:20:55.270Z,1019.77
2022-10-02T10:23:57.874Z,1019.66
2022-10-02T10:27:09.427Z,1019.56
2022-10-02T10:29:59.405Z,1019.47
2022-10-02T10:33:06.174Z,1019.44
2022-10-02T10:36:12.785Z,1019.29
2022-10-02T10:38:48.278Z,1019.05
2022-10-02T10:41:57.227Z,1019.08
2022-10-02T10:45:12.638Z,1018.84
2022-10-02T10:47:47.420Z,1018.70
2022-10-02T10:50:22.907Z,1018.54
2022-10-02T10:53:19.492Z,1018.42
2022-10-02T10:56:20.984Z,1018.44
2022-10-02T10:59:12.571Z,1018.35
2022-10-02T11:01:50.922Z,1018.36
2022-10-02T11:04:55.868Z,1018.30
2022-10-02T11:07:41.183Z,1018.38
2022-10-02T11:10:31.195Z,1018.26
2022-10-02T11:13:05.290Z,1018.15
2022-10-02T11:15:59.825Z,1018.06
2022-10-02T11:18:43.333Z,1017.91
2022-10-02T11:21:32.809Z,1017.90
2022-10-02T11:24:18.665Z,1017.87
2022-10-02T11:26:59.759Z,1017.85
2022-10-02T11:30:05.698Z,1017.90
2022-10-02T11:33:06.342Z,1017.77
2022-10-02T11:35:56.362Z,1017.65
2022-10-02T11:39:01.780Z,1017.57
2022-10-02T11:42:11.423Z,1017.72
2022-10-02T11:44:57.699Z,1017.99
2022-10-02T11:47:43.556Z,1017.71
2022-10-02T11:50:40.223Z,1017.70
2022-10-02T11:53:31.483Z,1017.62
2022-10-02T11:56:33.568Z,1017.64
2022-10-02T11:59:19.050Z,1017.52
2022-10-02T12:01:53.404Z,1017.41
2022-10-02T12:04:32.660Z,1017.47
2022-10-02T12:07:12.059Z,1017.40
2022-10-02T12:09:54.406Z,1017.42
2022-10-02T12:12:37.202Z,1017.38
2022-10-02T12:15:13.873Z,1017.30
2022-10-02T12:18:00.039Z,1017.31
2022-10-02T12:20:43.728Z,1017.22
2022-10-02T12:23:24.651Z,1017.26
2022-10-02T12:25:59.719Z,1017.15
2022-10-02T12:28:35.072Z,1016.96
2022-10-02T12:31:11.214Z,1016.93
2022-10-02T12:33:45.785Z,1017.00
2022-10-02T12:36:34.812Z,1016.93
2022-10-02T12:39:12.553Z,1016.90
2022-10-02T12:41:58.898Z,1016.76
2022-10-02T12:45:12.119Z,1016.78
2022-10-02T12:48:00.259Z,1016.71
2022-10-02T12:50:46.363Z,1016.57
2022-10-02T12:53:50.933Z,1016.62
2022-10-02T12:56:45.691Z,1016.66
2022-10-02T12:59:22.733Z,1016.92
2022-10-02T13:02:56.535Z,1016.87
2022-10-02T13:05:49.624Z,1017.10
2022-10-02T13:08:30.403Z,1017.27
2022-10-02T13:11:09.002Z,1017.16
2022-10-02T13:13:54.155Z,1017.18
2022-10-02T13:16:32.918Z,1017.10
2022-10-02T13:19:13.600Z,1017.07
2022-10-02T13:21:53.192Z,1016.97
2022-10-02T13:24:39.681Z,1016.82
2022-10-02T13:27:17.504Z,1016.79
2022-10-02T13:30:02.362Z,1016.84
2022-10-02T13:32:50.004Z,1016.74
2022-10-02T13:35:31.357Z,1016.62
2022-10-02T13:38:11.231Z,1016.62
2022-10-02T13:40:48.218Z,1016.55
2022-10-02T13:43:32.511Z,1016.49
2022-10-02T13:46:09.544Z,1016.42
2022-10-02T13:48:49.391Z,1016.39
2022-10-02T13:51:22.062Z,1016.31
2022-10-02T13:54:17.972Z,1016.41
2022-10-02T13:56:51.762Z,1016.23
2022-10-02T13:59:37.272Z,1016.18
2022-10-02T14:02:28.097Z,1016.24
2022-10-02T14:05:03.718Z,1016.12
2022-10-02T14:07:50.498Z,1016.22
2022-10-02T14:10:30.474Z,1016.20
2022-10-02T14:13:12.774Z,1016.15
2022-10-02T14:16:09.999Z,1016.14
2022-10-02T14:19:02.376Z,1016.06
2022-10-02T14:21:34.854Z,1016.04
2022-10-02T14:24:28.543Z,1015.89
2022-10-02T14:27:07.974Z,1015.86
2022-10-02T14:29:45.089Z,1015.80
2022-10-02T14:32:42.664Z,1015.75
2022-10-02T14:35:33.479Z,1015.71
2022-10-02T14:38:27.415Z,1015.67
2022-10-02T14:40:55.855Z,1015.73
2022-10-02T14:43:59.550Z,1015.73
2022-10-02T14:46:44.900Z,1015.85
2022-10-02T14:49:49.965Z,1016.17
2022-10-02T14:52:42.262Z,1016.14
2022-10-02T14:55:28.417Z,1016.08
2022-10-02T14:58:15.535Z,1016.20
2022-10-02T15:01:00.644Z,1016.20
2022-10-02T15:04:09.623Z,1016.11
2022-10-02T15:06:54.490Z,1016.22
2022-10-02T15:09:28.615Z,1016.17
2022-10-02T15:12:11.790Z,1016.23
2022-10-02T15:14:47.763Z,1016.42
2022-10-02T15:17:25.219Z,1016.48
2022-10-02T15:19:58.057Z,1016.68
2022-10-02T15:22:29.710Z,1016.82
2022-10-02T15:25:06.403Z,1016.91
2022-10-02T15:27:43.895Z,1016.96
2022-10-02T15:30:19.907Z,1017.09
2022-10-02T15:33:10.756Z,1017.13
2022-10-02T15:35:55.655Z,1017.24
2022-10-02T15:38:49.463Z,1017.27
2022-10-02T15:41:35.940Z,1017.40
2022-10-02T15:44:09.945Z,1017.43
2022-10-02T15:46:48.601Z,1017.40
2022-10-02T15:49:25.343Z,1017.57
2022-10-02T15:52:03.178Z,1017.75
2022-10-02T15:54:41.733Z,1017.63
2022-10-02T15:57:28.983Z,1017.56
2022-10-02T16:00:10.002Z,1017.65
2022-10-02T16:03:01.620Z,1017.74
2022-10-02T16:05:53.003Z,1017.81
2022-10-02T16:08:49.941Z,1017.93
2022-10-02T16:11:52.723Z,1017.98
2022-10-02T16:14:29.846Z,1018.03
2022-10-02T16:17:12.218Z,1018.04
2022-10-02T16:20:06.009Z,1018.11
2022-10-02T16:22:48.845Z,1017.92
2022-10-02T16:25:30.257Z,1017.98
2022-10-02T16:28:09.486Z,1018.16
2022-10-02T16:30:58.374Z,1018.24
2022-10-02T16:33:32.529Z,1018.22
2022-10-02T16:36:14.344Z,1018.22
2022-10-02T16:38:48.017Z,1018.31
2022-10-02T16:41:34.373Z,1018.38
2022-10-02T16:44:17.727Z,1018.33
2022-10-02T16:46:47.779Z,1018.57
2022-10-02T16:49:25.095Z,1018.53
2022-10-02T16:52:00.338Z,1018.53
2022-10-02T16:54:37.957Z,1018.69
2022-10-02T16:57:15.020Z,1018.77
2022-10-02T16:59:49.115Z,1018.83
2022-10-02T17:02:22.206Z,1018.84
2022-10-02T17:05:00.469Z,1018.86
2022-10-02T17:07:35.777Z,1018.95
2022-10-02T17:10:19.016Z,1019.04
2022-10-02T17:12:52.087Z,1018.97
2022-10-02T17:15:25.279Z,1018.93
2022-10-02T17:18:08.881Z,1019.01
2022-10-02T17:20:43.424Z,1019.07
2022-10-02T17:23:20.624Z,1018.99
2022-10-02T17:25:56.775Z,1019.10
2022-10-02T17:28:30.435Z,1019.17
2022-10-02T17:31:24.493Z,1019.31
2022-10-02T17:33:56.261Z,1019.32
2022-10-02T17:36:33.079Z,1019.36
2022-10-02T17:39:21.783Z,1019.47
2022-10-02T17:41:55.778Z,1019.55
2022-10-02T17:44:44.416Z,1019.59
2022-10-02T17:47:40.621Z,1019.58
2022-10-02T17:50:31.275Z,1019.56
2022-10-02T17:53:12.479Z,1019.61
2022-10-02T17:56:04.724Z,1019.75
2022-10-02T17:58:41.779Z,1019.74
2022-10-02T18:01:20.038Z,1019.80
2022-10-02T18:04:03.559Z,1019.67
2022-10-02T18:06:39.161Z,1019.82
2022-10-02T18:09:33.366Z,1019.84
2022-10-02T18:12:26.238Z,1019.98
2022-10-02T18:15:14.724Z,1019.87
2022-10-02T18:17:54.332Z,1019.87
2022-10-02T18:20:32.621Z,1019.71
2022-10-02T18:23:34.326Z,1019.77
2022-10-02T18:26:18.849Z,1019.87
2022-10-02T18:29:10.694Z,1019.97
2022-10-02T18:31:57.833Z,1019.91
2022-10-02T18:34:43.657Z,1019.93
2022-10-02T18:37:27.634Z,1019.93
2022-10-02T18:40:15.845Z,1019.95
2022-10-02T18:42:56.870Z,1020.01
2022-10-02T18:45:40.367Z,1019.98
2022-10-02T18:48:21.607Z,1020.11
2022-10-02T18:51:10.407Z,1020.03
2022-10-02T18:53:58.075Z,1020.04
2022-10-02T18:56:46.364Z,1019.95
2022-10-02T18:59:21.803Z,1020.02
2022-10-02T19:01:56.821Z,1019.98
2022-10-02T19:04:47.231Z,1020.08
2022-10-02T19:07:19.437Z,1020.02
2022-10-02T19:09:47.006Z,1020.05
2022-10-02T19:12:21.485Z,1020.12
2022-10-02T19:14:48.053Z,1020.13
2022-10-02T19:17:16.459Z,1020.21
2022-10-02T19:19:43.455Z,1020.27
2022-10-02T19:22:19.582Z,1020.24
2022-10-02T19:24:50.881Z,1020.28
2022-10-02T19:27:26.266Z,1020.28
2022-10-02T19:29:56.806Z,1020.27
2022-10-02T19:32:28.777Z,1020.37
2022-10-02T19:35:00.154Z,1020.37
2022-10-02T19:37:28.381Z,1020.51
2022-10-02T19:39:59.705Z,1020.50
2022-10-02T19:42:30.869Z,1020.59
2022-10-02T19:45:01.323Z,1020.65
2022-10-02T19:47:33.472Z,1020.70
2022-10-02T19:50:03.174Z,1020.73
2022-10-02T19:52:42.996Z,1020.76
2022-10-02T19:55:20.686Z,1020.82
2022-10-02T19:57:58.007Z,1020.85
2022-10-02T20:00:24.828Z,1020.88
2022-10-02T20:02:55.355Z,1020.90
2022-10-02T20:05:24.665Z,1020.89
2022-10-02T20:07:56.217Z,1020.87
2022-10-02T20:10:31.990Z,1020.85
2022-10-02T20:13:11.222Z,1020.79
2022-10-02T20:15:44.904Z,1020.77
2022-10-02T20:18:13.436Z,1020.74
2022-10-02T20:20:43.291Z,1020.76
2022-10-02T20:23:15.430Z,1020.81
2022-10-02T20:25:47.948Z,1020.79
2022-10-02T20:28:23.837Z,1020.86
2022-10-02T20:30:54.384Z,1020.69
2022-10-02T20:33:25.626Z,1020.67
2022-10-02T20:35:58.244Z,1020.70
2022-10-02T20:38:31.709Z,1020.64
2022-10-02T20:41:06.840Z,1020.63
2022-10-02T20:43:40.796Z,1020.66
2022-10-02T20:46:47.104Z,1020.69
2022-10-02T20:49:41.389Z,1020.78
2022-10-02T20:52:53.933Z,1020.70
2022-10-02T20:55:27.142Z,1020.77
2022-10-02T20:58:28.263Z,1020.75
2022-10-02T21:01:14.688Z,1020.78
2022-10-02T21:04:28.733Z,1020.80
2022-10-02T21:07:18.812Z,1021.08
2022-10-02T21:09:59.383Z,1020.83
2022-10-02T21:12:57.022Z,1020.80
2022-10-02T21:15:52.236Z,1020.87
2022-10-02T21:18:37.022Z,1021.02
2022-10-02T21:21:39.404Z,1021.08
2022-10-02T21:24:47.271Z,1020.98
2022-10-02T21:27:35.932Z,1020.86
2022-10-02T21:30:12.203Z,1020.84
2022-10-02T21:32:50.411Z,1020.72
2022-10-02T21:35:36.500Z,1020.83
2022-10-02T21:38:25.572Z,1021.02
2022-10-02T21:41:27.229Z,1021.03
2022-10-02T21:44:18.627Z,1020.89
2022-10-02T21:47:13.419Z,1021.02
2022-10-02T21:50:09.475Z,1021.04
2022-10-02T21:53:17.253Z,1020.78
2022-10-02T21:56:22.815Z,1020.98
2022-10-02T21:59:13.110Z,1021.06
2022-10-02T22:02:09.612Z,1021.25
2022-10-02T22:05:19.221Z,1021.20
2022-10-02T22:07:53.688Z,1021.35
2022-10-02T22:10:27.479Z,1021.38
2022-10-02T22:13:11.226Z,1021.49
2022-10-02T22:15:47.192Z,1021.57
2022-10-02T22:18:28.051Z,1021.59
2022-10-02T22:21:17.950Z,1021.64
2022-10-02T22:24:08.345Z,1021.82
2022-10-02T22:27:18.367Z,1021.83
2022-10-02T22:29:47.993Z,1021.99
2022-10-02T22:32:42.281Z,1022.01
2022-10-02T22:35:19.254Z,1022.07
2022-10-02T22:38:03.841Z,1022.10
2022-10-02T22:40:47.951Z,1022.08
2022-10-02T22:43:24.759Z,1022.10
2022-10-02T22:45:57.922Z,1022.13
2022-10-02T22:48:32.455Z,1022.18
2022-10-02T22:51:14.018Z,1022.17
2022-10-02T22:53:47.690Z,1022.12
2022-10-02T22:56:23.713Z,1021.94
2022-10-02T22:59:00.064Z,1021.96
2022-10-02T23:01:39.077Z,1021.93
2022-10-02T23:04:18.700Z,1021.99
2022-10-02T23:06:50.459Z,1022.08
2022-10-02T23:09:22.234Z,1022.11
2022-10-02T23:11:58.491Z,1022.20
2022-10-02T23:14:34.527Z,1022.31
2022-10-02T23:17:10.546Z,1022.38
2022-10-02T23:19:43.184Z,1022.32
2022-10-02T23:22:20.158Z,1022.38
2022-10-02T23:24:51.437Z,1022.31
2022-10-02T23:27:22.338Z,1022.36
2022-10-02T23:29:56.925Z,1022.31
2022-10-02T23:32:29.318Z,1022.44
2022-10-02T23:35:03.492Z,1022.47
2022-10-02T23:37:41.467Z,1022.49
2022-10-02T23:40:20.295Z,1022.60
2022-10-02T23:42:53.458Z,1022.64
2022-10-02T23:45:27.113Z,1022.53
2022-10-02T23:48:00.549Z,1022.62
2022-10-02T23:50:39.581Z,1022.53
2022-10-02T23:53:38.011Z,1022.62
2022-10-02T23:56:40.155Z,1022.74
2022-10-02T23:59:24.432Z,1022.97
